Time;durP1;ratioP1;P1;durP2;ratioP2;P2;SDS_P1;SDS_P2;PMS_P1;PMS_P2;Temp;Humidity;BMP_temperature;BMP_pressure;BME280_temperature;BME280_humidity;BME280_pressure;Samples;Min_cycle;Max_cycle;Signal;HPM_P1;HPM_P2
2023/04/28 00:00:29;;;;;;;10.15;5.90;;;11.10;73.30;;;;;;6241748;23;19996;-75
2023/04/28 00:02:54;;;;;;;6.90;5.60;;;11.10;73.40;;;;;;6242193;23;20326;-77
2023/04/28 00:05:21;;;;;;;9.60;5.75;;;11.10;73.60;;;;;;6241784;23;20015;-77
2023/04/28 00:07:47;;;;;;;7.45;5.63;;;11.00;73.60;;;;;;6242153;22;20422;-76
2023/04/28 00:10:13;;;;;;;5.95;5.38;;;11.00;73.80;;;;;;6239275;23;20008;-75
2023/04/28 00:12:38;;;;;;;8.50;5.45;;;11.00;73.90;;;;;;6241978;23;20010;-75
2023/04/28 00:15:04;;;;;;;8.18;6.07;;;11.00;73.70;;;;;;6239706;23;20008;-76
2023/04/28 00:17:30;;;;;;;6.85;5.63;;;10.90;73.70;;;;;;6241929;22;20031;-75
2023/04/28 00:19:55;;;;;;;8.98;5.63;;;10.90;73.90;;;;;;6241965;23;20008;-75
2023/04/28 00:22:21;;;;;;;7.85;5.75;;;10.90;74.10;;;;;;6241528;23;20411;-75
2023/04/28 00:24:46;;;;;;;10.85;6.68;;;10.90;74.10;;;;;;6241072;23;20040;-75
2023/04/28 00:27:12;;;;;;;6.90;5.25;;;10.90;74.20;;;;;;6241449;23;20076;-75
2023/04/28 00:29:37;;;;;;;6.22;5.45;;;10.90;74.30;;;;;;6240286;23;20083;-75
2023/04/28 00:32:03;;;;;;;7.45;5.22;;;10.80;74.40;;;;;;6241533;23;20036;-75
2023/04/28 00:34:32;;;;;;;7.05;5.25;;;10.80;74.50;;;;;;6241524;23;20056;-75
2023/04/28 00:36:57;;;;;;;5.47;4.45;;;10.80;74.60;;;;;;6241883;22;20061;-75
2023/04/28 00:39:24;;;;;;;5.53;4.90;;;10.80;74.60;;;;;;6239257;23;20058;-75
2023/04/28 00:41:50;;;;;;;6.53;5.22;;;10.80;74.60;;;;;;6241904;22;20083;-75
2023/04/28 00:44:15;;;;;;;7.97;5.07;;;10.80;74.80;;;;;;6239815;23;20034;-74
2023/04/28 00:46:41;;;;;;;7.03;5.38;;;10.80;74.90;;;;;;6241739;23;20003;-75
2023/04/28 00:49:06;;;;;;;6.18;5.25;;;10.80;74.90;;;;;;6241591;23;20023;-75
2023/04/28 00:51:32;;;;;;;6.43;5.20;;;10.70;75.10;;;;;;6241709;23;20012;-75
2023/04/28 00:53:58;;;;;;;9.38;5.15;;;10.80;75.20;;;;;;6241411;22;20007;-75
2023/04/28 00:56:26;;;;;;;6.70;5.25;;;10.80;75.30;;;;;;6241394;23;19996;-75
2023/04/28 00:58:52;;;;;;;7.30;5.10;;;10.80;75.20;;;;;;6241651;22;20141;-75
2023/04/28 01:01:18;;;;;;;7.90;5.70;;;10.80;75.40;;;;;;6241363;22;20100;-75
2023/04/28 01:03:44;;;;;;;9.55;5.22;;;10.80;75.40;;;;;;6241612;23;20414;-75
2023/04/28 01:06:11;;;;;;;8.25;6.22;;;10.80;75.50;;;;;;6241548;22;20054;-75
2023/04/28 01:08:38;;;;;;;8.40;4.95;;;10.80;75.60;;;;;;6241311;22;19993;-75
2023/04/28 01:11:03;;;;;;;7.47;5.47;;;10.80;75.70;;;;;;6241397;22;20004;-75
2023/04/28 01:13:29;;;;;;;7.30;4.65;;;10.80;76.10;;;;;;6241475;22;20007;-75
2023/04/28 01:15:55;;;;;;;7.03;5.03;;;10.80;76.20;;;;;;6241771;22;20051;-75
2023/04/28 01:18:23;;;;;;;6.43;5.38;;;10.80;76.80;;;;;;6241200;22;19996;-75
2023/04/28 01:20:49;;;;;;;5.95;5.18;;;10.80;77.70;;;;;;6241693;22;20000;-75
2023/04/28 01:23:16;;;;;;;7.28;5.93;;;10.80;78.50;;;;;;6240272;23;20025;-75
2023/04/28 01:25:42;;;;;;;8.35;5.65;;;10.70;79.50;;;;;;6241813;22;20035;-75
2023/04/28 01:28:08;;;;;;;8.07;6.30;;;10.70;80.20;;;;;;6241840;23;20402;-75
2023/04/28 01:30:34;;;;;;;6.03;5.43;;;10.60;80.60;;;;;;6243456;22;20079;-75
2023/04/28 01:33:00;;;;;;;8.60;6.60;;;10.60;81.00;;;;;;6243179;22;20046;-75
2023/04/28 01:35:26;;;;;;;9.63;6.22;;;10.50;81.50;;;;;;6243632;22;19996;-75
2023/04/28 01:37:51;;;;;;;8.63;5.95;;;10.50;81.90;;;;;;6242988;23;20010;-75
2023/04/28 01:40:17;;;;;;;8.38;5.65;;;10.50;82.70;;;;;;6243331;23;20024;-75
2023/04/28 01:42:43;;;;;;;6.57;5.88;;;10.50;82.90;;;;;;6245517;22;20007;-75
2023/04/28 01:45:09;;;;;;;7.78;5.95;;;10.50;83.70;;;;;;6241686;23;20008;-75
2023/04/28 01:47:35;;;;;;;8.63;6.30;;;10.40;83.80;;;;;;6243256;22;20065;-74
2023/04/28 01:50:00;;;;;;;9.70;6.15;;;10.40;83.90;;;;;;6243776;23;20329;-75
2023/04/28 01:52:26;;;;;;;8.75;6.00;;;10.40;84.80;;;;;;6243932;22;20079;-75
2023/04/28 01:54:53;;;;;;;7.53;6.80;;;10.30;84.50;;;;;;6243848;22;20079;-76
2023/04/28 01:57:18;;;;;;;9.10;6.30;;;10.30;85.10;;;;;;6242890;22;20403;-76
2023/04/28 01:59:44;;;;;;;8.25;5.65;;;10.30;85.50;;;;;;6243249;23;20000;-76
2023/04/28 02:02:10;;;;;;;7.78;6.57;;;10.20;85.70;;;;;;6243098;23;20000;-76
2023/04/28 02:04:37;;;;;;;8.73;6.32;;;10.20;86.20;;;;;;6243648;22;20376;-75
2023/04/28 02:07:03;;;;;;;8.10;6.47;;;10.20;86.50;;;;;;6242453;22;20005;-76
2023/04/28 02:09:28;;;;;;;8.25;6.22;;;10.20;86.70;;;;;;6243195;23;20392;-76
2023/04/28 02:11:54;;;;;;;10.40;7.07;;;10.20;86.90;;;;;;6243020;23;20005;-76
2023/04/28 02:14:19;;;;;;;8.82;6.07;;;10.10;87.10;;;;;;6242813;23;20007;-76
2023/04/28 02:16:45;;;;;;;9.00;6.47;;;10.10;88.40;;;;;;6243124;23;20016;-76
2023/04/28 02:19:10;;;;;;;12.00;7.82;;;10.10;87.80;;;;;;6242760;23;20299;-76
2023/04/28 02:21:36;;;;;;;7.57;5.65;;;10.10;87.90;;;;;;6242595;23;20280;-76
2023/04/28 02:24:02;;;;;;;9.52;6.50;;;10.10;87.80;;;;;;6242867;23;20071;-76
2023/04/28 02:26:27;;;;;;;7.03;5.25;;;10.10;88.00;;;;;;6242790;23;20445;-76
2023/04/28 02:28:53;;;;;;;12.27;6.65;;;10.10;88.00;;;;;;6242963;23;20433;-76
2023/04/28 02:31:19;;;;;;;10.05;7.10;;;10.20;87.90;;;;;;6242488;23;20066;-76
2023/04/28 02:33:45;;;;;;;9.93;6.75;;;10.20;88.10;;;;;;6242935;22;20168;-76
2023/04/28 02:36:11;;;;;;;7.93;6.25;;;10.20;88.50;;;;;;6242071;22;20024;-76
2023/04/28 02:38:36;;;;;;;6.85;6.15;;;10.10;88.30;;;;;;6242839;23;20008;-76
2023/04/28 02:41:07;;;;;;;9.15;5.88;;;10.10;88.30;;;;;;6241062;23;20053;-76
2023/04/28 02:43:34;;;;;;;7.45;5.72;;;10.10;88.20;;;;;;6242734;22;20003;-76
2023/04/28 02:46:01;;;;;;;6.80;5.32;;;10.20;88.10;;;;;;6242783;22;20423;-76
2023/04/28 02:48:27;;;;;;;6.47;5.88;;;10.20;88.10;;;;;;6242127;22;20028;-77
2023/04/28 02:50:53;;;;;;;7.93;6.10;;;10.20;88.00;;;;;;6242754;23;20000;-76
2023/04/28 02:53:19;;;;;;;8.48;6.60;;;10.20;88.00;;;;;;6242441;22;20076;-76
2023/04/28 02:55:45;;;;;;;9.48;6.05;;;10.20;88.00;;;;;;6242703;22;19997;-76
2023/04/28 02:58:10;;;;;;;7.22;5.28;;;10.20;88.00;;;;;;6242423;22;20000;-76
2023/04/28 03:00:36;;;;;;;9.00;5.85;;;10.20;87.90;;;;;;6242804;23;20071;-76
2023/04/28 03:03:02;;;;;;;9.07;5.78;;;10.20;87.80;;;;;;6242155;23;20000;-76
2023/04/28 03:05:27;;;;;;;12.27;6.68;;;10.20;87.90;;;;;;6242912;23;20004;-76
2023/04/28 03:07:53;;;;;;;6.75;5.53;;;10.20;88.00;;;;;;6242831;23;20071;-76
2023/04/28 03:10:19;;;;;;;7.80;6.53;;;10.10;88.10;;;;;;6242028;23;20003;-77
2023/04/28 03:12:44;;;;;;;6.95;5.97;;;10.10;88.10;;;;;;6240720;23;20008;-76
2023/04/28 03:15:10;;;;;;;7.80;6.95;;;10.10;88.30;;;;;;6242448;22;20110;-76
2023/04/28 03:17:40;;;;;;;7.95;6.25;;;10.10;88.40;;;;;;6242201;22;20000;-76
2023/04/28 03:20:07;;;;;;;9.07;6.28;;;10.10;88.50;;;;;;6243101;22;20078;-76
2023/04/28 03:22:33;;;;;;;10.13;5.97;;;10.10;88.50;;;;;;6240789;23;20011;-76
2023/04/28 03:24:58;;;;;;;10.68;6.25;;;10.10;88.60;;;;;;6242476;22;20000;-76
2023/04/28 03:27:24;;;;;;;9.13;6.75;;;10.10;88.80;;;;;;6242092;23;20000;-76
2023/04/28 03:29:50;;;;;;;6.03;4.95;;;10.10;89.00;;;;;;6242054;22;20063;-76
2023/04/28 03:32:15;;;;;;;7.57;6.03;;;10.20;89.00;;;;;;6239762;23;20000;-76
2023/04/28 03:34:41;;;;;;;8.02;5.72;;;10.20;88.90;;;;;;6240764;23;20437;-76
2023/04/28 03:37:06;;;;;;;9.65;6.80;;;10.20;89.00;;;;;;6240146;23;20426;-76
2023/04/28 03:39:32;;;;;;;7.72;6.60;;;10.20;89.00;;;;;;6240901;23;20007;-76
2023/04/28 03:41:57;;;;;;;8.63;6.05;;;10.20;89.20;;;;;;6241507;23;20337;-76
2023/04/28 03:44:23;;;;;;;11.20;6.18;;;10.20;89.80;;;;;;6241828;23;20165;-76
2023/04/28 03:46:49;;;;;;;7.30;6.60;;;10.20;89.30;;;;;;6241623;23;20007;-76
2023/04/28 03:49:15;;;;;;;12.00;6.63;;;10.20;89.40;;;;;;6241436;23;20423;-76
2023/04/28 03:51:40;;;;;;;9.13;6.22;;;10.20;89.60;;;;;;6241943;23;20012;-75
2023/04/28 03:54:06;;;;;;;8.90;6.97;;;10.30;89.70;;;;;;6241630;22;20109;-75
2023/04/28 03:56:33;;;;;;;12.85;6.82;;;10.30;89.80;;;;;;6240734;23;20066;-75
2023/04/28 03:58:58;;;;;;;8.35;6.18;;;10.30;89.90;;;;;;6242800;22;20000;-76
2023/04/28 04:01:24;;;;;;;9.85;6.53;;;10.30;90.00;;;;;;6241307;23;20039;-75
2023/04/28 04:03:49;;;;;;;9.57;5.82;;;10.30;90.00;;;;;;6242146;23;20039;-75
2023/04/28 04:06:15;;;;;;;7.97;6.80;;;10.30;90.00;;;;;;6241809;23;20007;-75
2023/04/28 04:08:41;;;;;;;7.85;6.75;;;10.30;90.10;;;;;;6242501;22;20000;-75
2023/04/28 04:11:07;;;;;;;10.23;6.65;;;10.30;90.20;;;;;;6242627;22;20133;-75
2023/04/28 04:13:32;;;;;;;8.93;6.65;;;10.30;90.30;;;;;;6242044;23;19996;-76
2023/04/28 04:15:58;;;;;;;9.23;6.35;;;10.30;90.30;;;;;;6241702;23;20413;-76
2023/04/28 04:18:24;;;;;;;8.45;7.38;;;10.30;90.40;;;;;;6241459;23;20024;-75
2023/04/28 04:20:49;;;;;;;10.38;6.85;;;10.30;90.40;;;;;;6242131;23;20000;-75
2023/04/28 04:23:15;;;;;;;10.45;7.10;;;10.30;90.50;;;;;;6241182;23;19999;-76
2023/04/28 04:25:41;;;;;;;9.77;6.75;;;10.30;90.60;;;;;;6242258;22;20000;-75
2023/04/28 04:28:07;;;;;;;8.25;6.72;;;10.30;90.70;;;;;;6241654;23;20080;-75
2023/04/28 04:30:32;;;;;;;12.80;7.45;;;10.30;90.70;;;;;;6241383;23;20442;-76
2023/04/28 04:32:58;;;;;;;8.60;7.68;;;10.30;90.90;;;;;;6241418;23;20020;-75
2023/04/28 04:35:23;;;;;;;10.70;7.82;;;10.30;91.00;;;;;;6241641;23;20004;-76
2023/04/28 04:37:49;;;;;;;8.30;7.38;;;10.30;91.00;;;;;;6241972;23;20000;-75
2023/04/28 04:40:15;;;;;;;10.30;7.97;;;10.30;91.20;;;;;;6241331;22;20004;-75
2023/04/28 04:42:41;;;;;;;12.60;8.85;;;10.40;91.30;;;;;;6241871;22;20010;-75
2023/04/28 04:45:07;;;;;;;11.60;8.25;;;10.40;91.40;;;;;;6240971;23;20004;-75
2023/04/28 04:47:33;;;;;;;10.15;7.50;;;10.30;91.50;;;;;;6241355;22;20422;-75
2023/04/28 04:49:59;;;;;;;8.65;7.75;;;10.30;91.60;;;;;;6241895;23;19996;-75
2023/04/28 04:52:24;;;;;;;9.98;7.80;;;10.40;91.70;;;;;;6241066;23;20058;-76
2023/04/28 04:54:50;;;;;;;11.85;8.20;;;10.30;91.80;;;;;;6241892;23;20074;-75
2023/04/28 04:57:16;;;;;;;9.73;8.15;;;10.40;91.90;;;;;;6241224;22;20075;-75
2023/04/28 04:59:41;;;;;;;9.38;8.32;;;10.40;92.00;;;;;;6239717;23;20187;-75
2023/04/28 05:02:07;;;;;;;16.08;8.68;;;10.40;92.20;;;;;;6239730;23;20086;-75
2023/04/28 05:04:33;;;;;;;11.88;9.27;;;10.40;92.20;;;;;;6241794;23;20046;-75
2023/04/28 05:06:58;;;;;;;12.15;9.10;;;10.40;92.40;;;;;;6241631;23;20069;-75
2023/04/28 05:09:24;;;;;;;9.32;8.40;;;10.40;92.50;;;;;;6240899;23;20011;-75
2023/04/28 05:11:49;;;;;;;12.00;9.07;;;10.40;92.60;;;;;;6241329;23;20005;-75
2023/04/28 05:14:16;;;;;;;9.48;8.48;;;10.50;92.80;;;;;;6240406;23;20071;-75
2023/04/28 05:16:41;;;;;;;11.88;9.10;;;10.50;92.80;;;;;;6241654;22;20023;-75
2023/04/28 05:19:07;;;;;;;15.15;9.50;;;10.50;93.00;;;;;;6239687;23;20008;-74
2023/04/28 05:21:32;;;;;;;11.60;8.93;;;10.50;93.10;;;;;;6241406;23;20084;-75
2023/04/28 05:23:58;;;;;;;15.45;9.63;;;10.60;93.20;;;;;;6241528;23;20008;-75
2023/04/28 05:26:24;;;;;;;12.05;9.25;;;10.60;93.30;;;;;;6241113;22;20414;-74
2023/04/28 05:28:50;;;;;;;15.27;10.82;;;10.60;93.40;;;;;;6241066;23;20149;-74
2023/04/28 05:31:16;;;;;;;11.70;10.40;;;10.60;93.60;;;;;;6240799;22;20004;-74
2023/04/28 05:33:41;;;;;;;14.85;11.07;;;10.60;93.80;;;;;;6241426;22;20024;-75
2023/04/28 05:36:07;;;;;;;15.82;11.07;;;10.70;94.00;;;;;;6241194;23;20386;-75
2023/04/28 05:38:33;;;;;;;13.77;10.65;;;10.70;94.20;;;;;;6239621;23;20089;-75
2023/04/28 05:41:02;;;;;;;12.60;11.23;;;10.70;94.40;;;;;;6241489;22;20011;-75
2023/04/28 05:43:27;;;;;;;14.13;12.27;;;10.70;94.60;;;;;;6240646;23;20083;-74
2023/04/28 05:45:53;;;;;;;16.85;12.43;;;10.80;94.80;;;;;;6239940;23;20055;-74
2023/04/28 05:48:18;;;;;;;12.57;10.13;;;10.80;95.20;;;;;;6240892;23;20007;-74
2023/04/28 05:50:44;;;;;;;16.23;11.55;;;10.90;95.20;;;;;;6241458;23;19997;-75
2023/04/28 05:53:10;;;;;;;14.27;12.77;;;10.90;95.40;;;;;;6239396;23;20004;-75
2023/04/28 05:55:36;;;;;;;17.63;13.90;;;10.90;95.80;;;;;;6239757;23;20374;-74
2023/04/28 05:58:02;;;;;;;18.75;14.40;;;10.90;96.10;;;;;;6240519;23;20008;-75
2023/04/28 06:00:28;;;;;;;16.92;13.93;;;11.00;96.60;;;;;;6241220;22;20025;-75
2023/04/28 06:02:53;;;;;;;21.63;14.88;;;11.00;96.90;;;;;;6241249;23;20012;-74
2023/04/28 06:05:19;;;;;;;23.20;16.20;;;11.00;97.40;;;;;;6240929;23;20027;-75
2023/04/28 06:07:45;;;;;;;21.48;17.13;;;11.10;98.40;;;;;;6241218;22;20054;-75
2023/04/28 06:10:11;;;;;;;20.40;16.45;;;11.10;99.10;;;;;;6240671;23;20040;-75
2023/04/28 06:12:37;;;;;;;18.77;16.40;;;11.10;99.90;;;;;;6241454;22;20008;-75
2023/04/28 06:15:03;;;;;;;22.73;16.27;;;11.10;99.90;;;;;;6243092;23;20354;-74
2023/04/28 06:17:31;;;;;;;19.92;16.42;;;11.00;99.90;;;;;;6243842;22;19996;-75
2023/04/28 06:19:58;;;;;;;19.95;15.02;;;11.10;99.90;;;;;;6243785;22;20019;-75
2023/04/28 06:22:24;;;;;;;17.95;15.63;;;11.10;99.90;;;;;;6242763;22;20004;-76
2023/04/28 06:24:49;;;;;;;20.83;17.33;;;11.10;99.90;;;;;;6243091;22;20032;-75
2023/04/28 06:27:15;;;;;;;19.77;17.45;;;11.10;99.90;;;;;;6242139;23;20003;-75
2023/04/28 06:29:41;;;;;;;20.83;17.05;;;11.10;99.90;;;;;;6245952;23;20015;-75
2023/04/28 06:32:06;;;;;;;21.83;18.30;;;11.20;99.90;;;;;;6244043;23;20008;-75
2023/04/28 06:34:33;;;;;;;23.67;18.05;;;11.20;99.90;;;;;;6243204;23;20031;-75
2023/04/28 06:36:59;;;;;;;18.63;14.85;;;11.30;99.90;;;;;;6243041;22;20011;-76
2023/04/28 06:39:25;;;;;;;20.60;17.55;;;11.30;99.90;;;;;;6242533;22;20028;-76
2023/04/28 06:41:50;;;;;;;24.48;20.17;;;11.30;99.90;;;;;;6242145;22;20007;-76
2023/04/28 06:44:16;;;;;;;24.40;18.40;;;11.40;99.90;;;;;;6242319;23;20023;-76
2023/04/28 06:46:42;;;;;;;22.05;18.60;;;11.40;99.90;;;;;;6242808;23;20027;-77
2023/04/28 06:49:07;;;;;;;23.05;18.70;;;11.60;99.90;;;;;;6242697;23;20004;-76
2023/04/28 06:51:33;;;;;;;20.67;18.48;;;11.60;99.90;;;;;;6241988;23;20030;-76
2023/04/28 06:53:59;;;;;;;22.13;19.92;;;11.80;99.90;;;;;;6241128;23;20006;-76
2023/04/28 06:56:25;;;;;;;25.48;19.70;;;11.90;99.90;;;;;;6239828;23;20377;-76
2023/04/28 06:58:51;;;;;;;22.58;18.88;;;12.10;99.90;;;;;;6241072;23;20004;-76
2023/04/28 07:01:16;;;;;;;21.17;18.60;;;12.30;99.90;;;;;;6241699;23;20008;-76
2023/04/28 07:03:42;;;;;;;24.05;20.73;;;12.40;99.90;;;;;;6242182;23;20008;-76
2023/04/28 07:06:07;;;;;;;26.65;20.48;;;12.50;99.90;;;;;;6241946;23;20086;-75
2023/04/28 07:08:34;;;;;;;23.70;18.92;;;12.70;99.90;;;;;;6240678;23;20058;-76
2023/04/28 07:11:03;;;;;;;24.23;20.42;;;12.80;99.90;;;;;;6241015;22;20000;-76
2023/04/28 07:13:29;;;;;;;24.30;21.70;;;12.90;99.90;;;;;;6240650;23;20433;-76
2023/04/28 07:15:55;;;;;;;22.90;20.05;;;13.00;99.90;;;;;;6240752;23;20039;-76
2023/04/28 07:18:20;;;;;;;24.20;20.08;;;13.00;99.90;;;;;;6241414;23;20310;-77
2023/04/28 07:20:47;;;;;;;23.48;19.90;;;13.10;99.90;;;;;;6242142;23;20059;-77
2023/04/28 07:23:12;;;;;;;20.38;18.27;;;13.10;99.90;;;;;;6240139;23;20007;-77
2023/04/28 07:25:39;;;;;;;24.70;19.85;;;13.10;99.90;;;;;;6241634;22;19996;-78
2023/04/28 07:28:05;;;;;;;26.85;21.02;;;13.10;99.90;;;;;;6242093;22;20418;-78
2023/04/28 07:30:31;;;;;;;29.60;20.52;;;13.00;99.90;;;;;;6242706;22;20434;-78
2023/04/28 07:32:57;;;;;;;24.63;20.92;;;13.10;99.90;;;;;;6242386;22;20118;-77
2023/04/28 07:35:23;;;;;;;21.60;19.33;;;13.10;99.90;;;;;;6242456;23;20004;-78
2023/04/28 07:37:48;;;;;;;25.58;21.08;;;13.30;99.90;;;;;;6241409;23;20030;-78
2023/04/28 07:40:14;;;;;;;23.13;20.67;;;13.40;99.90;;;;;;6239853;23;20012;-78
2023/04/28 07:42:40;;;;;;;22.15;19.90;;;13.60;99.90;;;;;;6242363;23;20018;-78
2023/04/28 07:45:06;;;;;;;20.33;18.23;;;13.70;99.90;;;;;;6240577;23;20371;-77
2023/04/28 07:47:32;;;;;;;21.38;18.95;;;13.80;99.90;;;;;;6242399;22;20434;-77
2023/04/28 07:49:59;;;;;;;20.38;18.23;;;13.80;99.90;;;;;;6241076;23;20008;-77
2023/04/28 07:52:25;;;;;;;22.17;17.88;;;13.90;99.90;;;;;;6240746;23;20015;-77
2023/04/28 07:54:50;;;;;;;26.25;20.30;;;13.90;99.90;;;;;;6240496;23;20327;-77
2023/04/28 07:57:16;;;;;;;22.48;19.30;;;14.00;99.90;;;;;;6240468;23;20004;-76
2023/04/28 07:59:41;;;;;;;21.63;19.33;;;14.00;99.90;;;;;;6242919;23;20000;-76
2023/04/28 08:02:07;;;;;;;24.13;17.48;;;14.00;99.90;;;;;;6242270;23;20004;-77
2023/04/28 08:04:33;;;;;;;21.17;18.95;;;14.00;99.90;;;;;;6242591;23;20065;-76
2023/04/28 08:06:59;;;;;;;20.30;18.33;;;14.00;99.90;;;;;;6242974;22;20008;-76
2023/04/28 08:09:25;;;;;;;23.15;19.92;;;14.00;99.90;;;;;;6241567;22;20053;-76
2023/04/28 08:11:51;;;;;;;23.58;19.65;;;14.00;99.90;;;;;;6240723;23;20087;-77
2023/04/28 08:14:16;;;;;;;21.35;19.20;;;14.00;99.90;;;;;;6240529;23;20006;-76
2023/04/28 08:16:42;;;;;;;29.08;20.33;;;13.90;99.90;;;;;;6241093;23;20000;-76
2023/04/28 08:19:08;;;;;;;22.85;19.63;;;14.00;99.90;;;;;;6242436;23;19996;-78
2023/04/28 08:21:34;;;;;;;23.52;19.15;;;14.00;99.90;;;;;;6241144;23;20004;-78
2023/04/28 08:24:00;;;;;;;22.90;19.35;;;14.00;99.90;;;;;;6242289;23;20038;-78
2023/04/28 08:26:26;;;;;;;22.05;19.75;;;14.10;99.90;;;;;;6242118;22;20000;-78
2023/04/28 08:28:52;;;;;;;25.00;19.95;;;14.20;99.90;;;;;;6241196;23;20087;-77
2023/04/28 08:31:17;;;;;;;23.73;21.27;;;14.40;99.90;;;;;;6241887;23;20012;-77
2023/04/28 08:33:47;;;;;;;28.42;22.33;;;14.60;99.90;;;;;;6240879;23;20456;-77
2023/04/28 08:36:13;;;;;;;22.48;19.65;;;14.70;99.90;;;;;;6242360;22;20022;-77
2023/04/28 08:38:40;;;;;;;23.05;20.65;;;14.80;99.90;;;;;;6244148;22;20445;-76
2023/04/28 08:41:06;;;;;;;24.25;21.30;;;14.80;99.90;;;;;;6243023;22;20000;-76
2023/04/28 08:43:36;;;;;;;24.40;21.73;;;14.90;99.90;;;;;;6242615;22;20005;-77
2023/04/28 08:46:06;;;;;;;22.13;19.77;;;15.00;99.90;;;;;;6241397;23;20016;-76
2023/04/28 08:48:41;;;;;;;19.00;16.92;;;15.10;99.90;;;;;;6244318;22;20008;-75
2023/04/28 08:51:07;;;;;;;18.60;16.27;;;15.20;99.90;;;;;;6243895;22;20020;-76
2023/04/28 08:53:36;;;;;;;20.20;16.48;;;15.20;99.90;;;;;;6240957;23;20087;-75
2023/04/28 08:56:05;;;;;;;18.55;16.55;;;15.20;99.90;;;;;;6242409;22;20034;-75
2023/04/28 08:58:31;;;;;;;18.23;16.40;;;15.10;99.90;;;;;;6242133;22;20007;-75
2023/04/28 09:01:01;;;;;;;20.83;15.98;;;15.00;99.90;;;;;;6242451;22;20008;-75
2023/04/28 09:03:27;;;;;;;17.15;15.35;;;15.00;99.90;;;;;;6240291;23;20008;-75
2023/04/28 09:05:52;;;;;;;17.50;15.27;;;15.00;99.90;;;;;;6241801;23;20000;-75
2023/04/28 09:08:18;;;;;;;16.80;15.00;;;15.10;99.90;;;;;;6241781;23;20127;-76
2023/04/28 09:10:43;;;;;;;19.20;16.75;;;15.10;99.90;;;;;;6242396;23;19996;-77
2023/04/28 09:13:09;;;;;;;19.52;15.63;;;15.10;99.90;;;;;;6241804;23;20083;-76
2023/04/28 09:15:41;;;;;;;18.80;16.85;;;15.30;99.90;;;;;;6240577;23;20058;-76
2023/04/28 09:18:07;;;;;;;15.80;14.13;;;15.30;99.90;;;;;;6240367;23;20078;-75
2023/04/28 09:20:34;;;;;;;20.65;16.35;;;15.40;99.90;;;;;;6241685;23;20414;-75
2023/04/28 09:23:20;;;;;;;19.35;16.73;;;15.40;99.90;;;;;;6242296;22;20015;-75
2023/04/28 09:25:58;;;;;;;18.40;16.35;;;15.40;99.90;;;;;;6242370;22;20004;-75
2023/04/28 09:28:23;;;;;;;19.77;15.52;;;15.40;99.90;;;;;;6240085;23;20015;-75
2023/04/28 09:30:49;;;;;;;15.82;14.32;;;15.30;99.90;;;;;;6240612;23;20004;-76
2023/04/28 09:33:15;;;;;;;19.33;15.93;;;15.40;99.90;;;;;;6241240;23;20016;-75
2023/04/28 09:35:41;;;;;;;18.05;16.15;;;15.40;99.90;;;;;;6241768;22;20051;-75
2023/04/28 09:38:07;;;;;;;15.20;13.60;;;15.50;99.90;;;;;;6241951;22;20008;-75
2023/04/28 09:40:41;;;;;;;17.75;15.80;;;15.50;99.90;;;;;;6240465;23;20411;-75
2023/04/28 09:43:29;;;;;;;18.60;16.48;;;15.60;99.90;;;;;;6241671;22;20481;-75
2023/04/28 09:45:56;;;;;;;17.83;15.23;;;15.60;99.90;;;;;;6240723;23;20349;-75
2023/04/28 09:48:35;;;;;;;17.48;15.52;;;15.60;99.90;;;;;;6242704;22;19996;-77
2023/04/28 09:51:06;;;;;;;18.25;16.65;;;15.70;99.90;;;;;;6243348;22;20031;-75
2023/04/28 09:53:33;;;;;;;19.75;17.90;;;15.60;99.90;;;;;;6244109;22;20024;-75
2023/04/28 09:56:01;;;;;;;21.65;19.75;;;15.50;99.90;;;;;;6242543;23;20004;-75
2023/04/28 09:58:28;;;;;;;20.55;18.35;;;15.40;99.90;;;;;;6243395;22;20000;-75
2023/04/28 10:00:55;;;;;;;21.85;19.83;;;15.30;99.90;;;;;;6244216;22;20014;-75
2023/04/28 10:03:26;;;;;;;21.85;19.77;;;15.30;99.90;;;;;;6242815;22;20429;-75
2023/04/28 10:05:52;;;;;;;22.13;19.92;;;15.40;99.90;;;;;;6244175;22;20024;-75
2023/04/28 10:08:22;;;;;;;21.33;18.92;;;15.40;99.90;;;;;;6243207;22;20008;-77
2023/04/28 10:10:55;;;;;;;24.48;21.90;;;15.40;99.90;;;;;;6242308;23;20004;-75
2023/04/28 10:13:22;;;;;;;20.77;18.67;;;15.40;99.90;;;;;;6241667;23;20008;-76
2023/04/28 10:15:54;;;;;;;21.30;19.38;;;15.50;99.90;;;;;;6243723;22;20011;-76
2023/04/28 10:18:21;;;;;;;23.92;21.52;;;15.50;99.90;;;;;;6242415;22;20058;-76
2023/04/28 10:20:51;;;;;;;22.40;20.40;;;15.40;99.90;;;;;;6243763;22;20078;-76
2023/04/28 10:23:35;;;;;;;23.42;21.10;;;15.50;99.90;;;;;;6243822;22;20000;-76
2023/04/28 10:26:02;;;;;;;21.50;19.50;;;15.50;99.90;;;;;;6242285;23;20433;-75
2023/04/28 10:28:28;;;;;;;22.55;19.95;;;15.60;99.90;;;;;;6242885;22;20000;-75
2023/04/28 10:31:14;;;;;;;23.95;21.65;;;15.60;99.90;;;;;;6241611;23;20007;-75
2023/04/28 10:33:41;;;;;;;20.80;19.00;;;15.70;99.90;;;;;;6242731;22;20099;-76
2023/04/28 10:36:07;;;;;;;19.98;18.30;;;15.80;99.90;;;;;;6243562;22;20445;-76
2023/04/28 10:38:34;;;;;;;21.02;19.13;;;15.80;99.90;;;;;;6243584;23;20103;-75
2023/04/28 10:41:02;;;;;;;24.15;21.85;;;15.90;99.90;;;;;;6243660;22;20004;-76
2023/04/28 10:43:40;;;;;;;25.73;23.05;;;15.90;99.90;;;;;;6243209;22;20620;-75
2023/04/28 10:46:08;;;;;;;22.02;19.92;;;15.90;99.90;;;;;;6243406;22;20007;-76
2023/04/28 10:48:33;;;;;;;23.10;21.00;;;15.90;99.90;;;;;;6241093;23;20007;-76
2023/04/28 10:51:05;;;;;;;23.70;21.58;;;15.90;99.90;;;;;;6243141;22;20008;-76
2023/04/28 10:53:51;;;;;;;21.55;19.75;;;15.90;99.90;;;;;;6243114;22;20011;-76
2023/04/28 10:56:22;;;;;;;21.50;19.60;;;15.90;99.90;;;;;;6222076;22;20054;-76
2023/04/28 10:58:49;;;;;;;21.90;19.77;;;15.90;99.90;;;;;;6243623;22;20027;-75
2023/04/28 11:01:17;;;;;;;16.05;14.75;;;15.90;99.90;;;;;;6244018;22;20422;-76
2023/04/28 11:03:50;;;;;;;18.60;16.90;;;16.00;99.90;;;;;;6244469;23;20000;-76
2023/04/28 11:06:34;;;;;;;17.17;15.65;;;16.00;99.90;;;;;;6243498;22;20075;-76
2023/04/28 11:09:20;;;;;;;16.00;14.65;;;16.00;99.90;;;;;;6243685;22;19996;-76
2023/04/28 11:12:09;;;;;;;16.90;15.48;;;16.10;99.90;;;;;;6244930;23;20070;-76
2023/04/28 11:14:36;;;;;;;17.35;15.85;;;16.20;99.90;;;;;;6245874;22;20303;-76
2023/04/28 11:17:04;;;;;;;16.20;14.90;;;16.20;99.90;;;;;;6242580;22;20488;-76
2023/04/28 11:19:36;;;;;;;15.18;13.88;;;16.20;99.90;;;;;;6242876;22;20001;-76
2023/04/28 11:22:10;;;;;;;13.90;12.70;;;16.30;99.90;;;;;;6243486;22;20341;-76
2023/04/28 11:24:36;;;;;;;16.30;14.70;;;16.20;99.90;;;;;;6241643;23;20008;-76
2023/04/28 11:27:02;;;;;;;13.23;12.10;;;16.20;99.90;;;;;;6241873;23;20062;-75
2023/04/28 11:29:35;;;;;;;14.70;13.32;;;16.20;99.90;;;;;;6242515;22;20079;-76
2023/04/28 11:32:02;;;;;;;16.95;15.32;;;16.20;99.90;;;;;;6240809;23;20015;-76
2023/04/28 11:34:28;;;;;;;16.75;15.25;;;16.00;99.90;;;;;;6242341;22;20091;-76
2023/04/28 11:36:53;;;;;;;16.20;14.80;;;15.90;99.90;;;;;;6243026;23;20035;-76
2023/04/28 11:39:45;;;;;;;17.50;15.93;;;15.90;99.90;;;;;;6242445;23;20014;-76
2023/04/28 11:42:11;;;;;;;21.17;19.20;;;15.90;99.90;;;;;;6237267;22;20418;-77
2023/04/28 11:44:37;;;;;;;21.02;19.20;;;15.80;99.90;;;;;;6242773;23;20004;-77
2023/04/28 11:47:03;;;;;;;21.27;19.17;;;15.70;99.90;;;;;;6242803;23;20422;-77
2023/04/28 11:49:32;;;;;;;23.33;21.02;;;15.90;99.90;;;;;;6242702;22;20008;-77
2023/04/28 11:52:03;;;;;;;21.27;19.17;;;16.10;99.90;;;;;;6241470;23;20021;-77
2023/04/28 11:54:29;;;;;;;21.85;19.88;;;16.40;99.90;;;;;;6242620;22;20000;-77
2023/04/28 11:56:56;;;;;;;23.55;21.15;;;16.60;99.90;;;;;;6242942;23;20001;-77
2023/04/28 11:59:26;;;;;;;23.60;21.17;;;16.70;99.90;;;;;;6240261;23;20032;-75
2023/04/28 12:01:58;;;;;;;20.35;18.25;;;16.70;99.90;;;;;;6242795;22;20434;-79
2023/04/28 12:04:30;;;;;;;20.83;18.75;;;16.70;99.90;;;;;;6242374;22;20372;-77
2023/04/28 12:07:16;;;;;;;22.90;20.85;;;16.80;99.90;;;;;;6241175;23;20008;-76
2023/04/28 12:09:44;;;;;;;20.60;18.70;;;16.60;99.90;;;;;;6242524;22;20004;-76
2023/04/28 12:12:10;;;;;;;21.50;19.30;;;16.40;99.90;;;;;;6242247;22;20139;-77
2023/04/28 12:15:00;;;;;;;21.63;19.45;;;16.40;99.90;;;;;;6242300;22;20000;-76
2023/04/28 12:17:27;;;;;;;21.13;18.30;;;16.30;99.90;;;;;;6240642;23;20005;-77
2023/04/28 12:19:58;;;;;;;19.42;17.55;;;16.30;99.90;;;;;;6242821;22;20437;-76
2023/04/28 12:22:24;;;;;;;22.80;20.02;;;16.20;99.90;;;;;;6240935;23;20004;-77
2023/04/28 12:25:11;;;;;;;21.13;19.00;;;16.10;99.90;;;;;;6240904;23;20055;-76
2023/04/28 12:27:39;;;;;;;20.92;18.70;;;16.10;99.90;;;;;;6242691;22;20071;-77
2023/04/28 12:30:26;;;;;;;19.88;17.98;;;15.90;99.90;;;;;;6241940;22;20042;-76
2023/04/28 12:32:52;;;;;;;19.05;17.15;;;15.90;99.90;;;;;;6240195;23;20016;-77
2023/04/28 12:35:21;;;;;;;19.10;17.20;;;15.80;99.90;;;;;;6240511;23;20011;-76